createdAt,value
2018-01-03T00:01:02.000Z,5.50
2018-01-03T00:03:28.204Z,5.40
2018-01-03T00:05:55.335Z,5.40
2018-01-03T00:08:21.945Z,5.30
2018-01-03T00:10:48.223Z,5.30
2018-01-03T00:13:14.469Z,5.40
2018-01-03T00:15:40.693Z,5.20
2018-01-03T00:18:06.957Z,5.20
2018-01-03T00:20:33.187Z,5.20
2018-01-03T00:22:59.444Z,5.30
2018-01-03T00:25:26.058Z,5.20
2018-01-03T00:27:52.279Z,5.20
2018-01-03T00:30:18.539Z,5.10
2018-01-03T00:32:44.778Z,5.30
2018-01-03T00:35:11.018Z,5.30
2018-01-03T00:37:38.179Z,5.30
2018-01-03T00:40:05.240Z,5.20
2018-01-03T00:42:31.509Z,5.10
2018-01-03T00:44:57.738Z,5.00
2018-01-03T00:47:24.305Z,5.10
2018-01-03T00:49:50.568Z,5.10
2018-01-03T00:52:16.829Z,5.30
2018-01-03T00:54:43.403Z,5.30
2018-01-03T00:57:09.709Z,5.30
2018-01-03T00:59:35.927Z,5.20
2018-01-03T01:02:02.520Z,5.20
2018-01-03T01:04:28.766Z,5.20
2018-01-03T01:06:54.973Z,5.20
2018-01-03T01:09:21.212Z,5.20
2018-01-03T01:11:47.449Z,5.30
2018-01-03T01:14:13.720Z,5.20
2018-01-03T01:16:39.976Z,5.20
2018-01-03T01:19:06.281Z,5.20
2018-01-03T01:21:32.535Z,5.00
2018-01-03T01:23:58.798Z,5.10
2018-01-03T01:26:25.030Z,5.20
2018-01-03T01:28:51.269Z,5.20
2018-01-03T01:31:17.891Z,5.10
2018-01-03T01:33:44.146Z,5.00
2018-01-03T01:36:10.767Z,5.20
2018-01-03T01:38:37.017Z,5.20
2018-01-03T01:41:03.581Z,5.10
2018-01-03T01:43:29.808Z,5.20
2018-01-03T01:45:56.036Z,5.20
2018-01-03T01:48:22.276Z,5.20
2018-01-03T01:50:48.528Z,5.20
2018-01-03T01:53:14.799Z,5.20
2018-01-03T01:55:41.042Z,5.30
2018-01-03T01:58:07.277Z,5.30
2018-01-03T02:00:33.541Z,5.30
2018-01-03T02:03:00.159Z,5.20
2018-01-03T02:05:26.402Z,5.20
2018-01-03T02:07:52.641Z,5.20
2018-01-03T02:10:18.914Z,5.10
2018-01-03T02:12:45.173Z,5.10
2018-01-03T02:15:11.425Z,5.10
2018-01-03T02:17:37.646Z,5.20
2018-01-03T02:20:03.835Z,5.30
2018-01-03T02:22:30.062Z,5.40
2018-01-03T02:24:56.275Z,5.50
2018-01-03T02:27:22.580Z,5.30
2018-01-03T02:29:48.844Z,5.20
2018-01-03T02:32:15.093Z,5.30
2018-01-03T02:34:42.261Z,5.50
2018-01-03T02:37:08.526Z,5.50
2018-01-03T02:39:34.816Z,5.40
2018-01-03T02:42:01.058Z,5.30
2018-01-03T02:44:27.287Z,5.30
2018-01-03T02:46:53.765Z,5.40
2018-01-03T02:49:20.000Z,5.50
2018-01-03T02:51:46.234Z,5.60
2018-01-03T02:54:12.472Z,5.50
2018-01-03T02:56:38.723Z,5.50
2018-01-03T02:59:04.946Z,5.70
2018-01-03T03:01:31.213Z,5.60
2018-01-03T03:03:57.444Z,5.70
2018-01-03T03:06:24.064Z,5.80
2018-01-03T03:08:50.328Z,5.80
2018-01-03T03:11:16.569Z,5.80
2018-01-03T03:13:42.857Z,6.00
2018-01-03T03:16:09.466Z,6.10
2018-01-03T03:18:35.683Z,6.10
2018-01-03T03:21:01.920Z,6.20
2018-01-03T03:23:28.193Z,6.30
2018-01-03T03:25:54.810Z,6.20
2018-01-03T03:28:21.052Z,6.20
2018-01-03T03:30:47.623Z,6.10
2018-01-03T03:33:13.846Z,6.20
2018-01-03T03:35:40.129Z,6.20
2018-01-03T03:38:06.337Z,6.20
2018-01-03T03:40:32.564Z,6.30
2018-01-03T03:42:58.790Z,6.40
2018-01-03T03:45:25.026Z,6.40
2018-01-03T03:47:52.043Z,6.50
2018-01-03T03:50:18.264Z,6.50
2018-01-03T03:52:44.492Z,6.50
2018-01-03T03:55:10.689Z,6.50
2018-01-03T03:57:36.898Z,6.50
2018-01-03T04:00:03.152Z,6.70
2018-01-03T04:02:29.392Z,6.80
2018-01-03T04:04:55.603Z,6.90
2018-01-03T04:07:22.226Z,7.00
2018-01-03T04:09:49.732Z,7.00
2018-01-03T04:12:15.985Z,7.00
2018-01-03T04:14:42.258Z,7.10
2018-01-03T04:17:08.831Z,6.90
2018-01-03T04:19:36.091Z,6.90
2018-01-03T04:22:02.288Z,7.00
2018-01-03T04:24:28.557Z,6.90
2018-01-03T04:26:55.779Z,6.90
2018-01-03T04:29:22.690Z,7.00
2018-01-03T04:31:49.290Z,7.10
2018-01-03T04:34:15.517Z,7.10
2018-01-03T04:36:41.726Z,7.10
2018-01-03T04:39:07.985Z,7.20
2018-01-03T04:41:34.257Z,7.30
2018-01-03T04:44:00.492Z,7.30
2018-01-03T04:46:26.720Z,7.50
2018-01-03T04:48:52.919Z,7.50
2018-01-03T04:51:19.135Z,7.50
2018-01-03T04:53:45.349Z,7.60
2018-01-03T04:56:11.566Z,7.60
2018-01-03T04:58:39.404Z,7.80
2018-01-03T05:01:05.611Z,7.90
2018-01-03T05:03:31.837Z,7.90
2018-01-03T05:05:58.411Z,7.90
2018-01-03T05:08:24.628Z,7.90
2018-01-03T05:10:50.864Z,7.80
2018-01-03T05:13:17.092Z,7.90
2018-01-03T05:15:43.323Z,7.90
2018-01-03T05:18:09.523Z,7.90
2018-01-03T05:20:35.754Z,8.00
2018-01-03T05:23:01.978Z,8.00
2018-01-03T05:25:28.238Z,8.00
2018-01-03T05:27:54.494Z,8.10
2018-01-03T05:30:20.719Z,8.10
2018-01-03T05:32:46.949Z,8.20
2018-01-03T05:35:13.172Z,8.30
2018-01-03T05:37:39.390Z,8.30
2018-01-03T05:40:05.590Z,8.50
2018-01-03T05:42:31.820Z,8.50
2018-01-03T05:44:59.715Z,8.60
2018-01-03T05:47:25.936Z,8.70
2018-01-03T05:49:52.162Z,8.70
2018-01-03T05:52:18.383Z,8.80
2018-01-03T05:54:44.624Z,8.90
2018-01-03T05:57:10.888Z,8.80
2018-01-03T05:59:37.471Z,8.70
2018-01-03T06:02:03.681Z,8.70
2018-01-03T06:04:30.432Z,8.70
2018-01-03T06:06:56.645Z,8.70
2018-01-03T06:09:22.850Z,8.70
2018-01-03T06:11:49.473Z,8.80
2018-01-03T06:14:15.684Z,8.80
2018-01-03T06:16:41.942Z,8.90
2018-01-03T06:19:08.165Z,8.90
2018-01-03T06:21:34.812Z,9.00
2018-01-03T06:24:01.046Z,9.00
2018-01-03T06:26:28.112Z,9.00
2018-01-03T06:28:54.400Z,9.10
2018-01-03T06:31:20.609Z,9.20
2018-01-03T06:33:46.874Z,9.30
2018-01-03T06:36:13.096Z,9.30
2018-01-03T06:38:39.730Z,9.40
2018-01-03T06:41:06.308Z,9.50
2018-01-03T06:43:32.551Z,9.50
2018-01-03T06:45:58.850Z,9.50
2018-01-03T06:48:25.143Z,9.50
2018-01-03T06:50:51.372Z,9.60
2018-01-03T06:53:17.604Z,9.70
2018-01-03T06:55:43.837Z,9.90
2018-01-03T06:58:10.400Z,10.00
2018-01-03T07:00:36.635Z,10.00
2018-01-03T07:03:02.857Z,10.10
2018-01-03T07:05:29.098Z,10.20
2018-01-03T07:07:55.334Z,10.20
2018-01-03T07:10:21.551Z,10.20
2018-01-03T07:12:47.832Z,10.30
2018-01-03T07:15:14.110Z,10.40
2018-01-03T07:17:40.347Z,10.40
2018-01-03T07:20:06.558Z,10.40
2018-01-03T07:22:32.787Z,10.40
2018-01-03T07:24:58.989Z,10.40
2018-01-03T07:27:25.223Z,10.30
2018-01-03T07:29:51.505Z,10.30
2018-01-03T07:32:17.733Z,10.20
2018-01-03T07:34:43.943Z,10.20
2018-01-03T07:37:10.195Z,10.30
2018-01-03T07:39:36.420Z,10.30
2018-01-03T07:42:02.680Z,10.40
2018-01-03T07:44:29.339Z,10.40
2018-01-03T07:46:55.573Z,10.40
2018-01-03T07:49:21.771Z,10.10
2018-01-03T07:51:48.968Z,9.70
2018-01-03T07:54:15.183Z,9.70
2018-01-03T07:56:41.508Z,9.80
2018-01-03T07:59:07.737Z,9.80
2018-01-03T08:01:34.020Z,10.00
2018-01-03T08:04:00.248Z,10.10
2018-01-03T08:06:26.449Z,10.20
2018-01-03T08:08:52.728Z,10.20
2018-01-03T08:11:18.954Z,10.00
2018-01-03T08:13:45.260Z,9.80
2018-01-03T08:16:11.488Z,9.60
2018-01-03T08:18:37.721Z,9.60
2018-01-03T08:21:03.970Z,9.50
2018-01-03T08:23:30.576Z,9.50
2018-01-03T08:25:56.796Z,9.50
2018-01-03T08:28:23.008Z,9.50
2018-01-03T08:30:49.265Z,9.70
2018-01-03T08:33:15.489Z,9.80
2018-01-03T08:35:41.738Z,9.00
2018-01-03T08:38:08.332Z,7.40
2018-01-03T08:40:34.543Z,7.40
2018-01-03T08:43:00.788Z,6.90
2018-01-03T08:45:27.046Z,6.60
2018-01-03T08:47:53.330Z,6.60
2018-01-03T08:50:19.573Z,6.60
2018-01-03T08:52:45.816Z,6.60
2018-01-03T08:55:12.045Z,6.70
2018-01-03T08:57:38.275Z,6.70
2018-01-03T09:00:04.530Z,6.70
2018-01-03T09:02:30.774Z,6.80
2018-01-03T09:04:57.391Z,6.70
2018-01-03T09:07:23.632Z,6.70
2018-01-03T09:09:49.860Z,6.80
2018-01-03T09:12:16.115Z,6.90
2018-01-03T09:14:42.855Z,7.00
2018-01-03T09:17:09.099Z,7.10
2018-01-03T09:19:35.334Z,7.10
2018-01-03T09:22:01.571Z,7.10
2018-01-03T09:24:27.794Z,7.20
2018-01-03T09:26:54.020Z,7.40
2018-01-03T09:29:20.277Z,7.50
2018-01-03T09:31:46.516Z,7.50
2018-01-03T09:34:12.751Z,7.60
2018-01-03T09:36:39.399Z,7.80
2018-01-03T09:39:05.663Z,7.70
2018-01-03T09:41:31.917Z,7.60
2018-01-03T09:43:58.131Z,7.70
2018-01-03T09:46:24.373Z,7.70
2018-01-03T09:48:50.588Z,7.80
2018-01-03T09:51:16.833Z,7.70
2018-01-03T09:53:43.085Z,7.60
2018-01-03T09:56:09.689Z,7.60
2018-01-03T09:58:35.922Z,7.60
2018-01-03T10:01:02.178Z,7.70
2018-01-03T10:03:28.793Z,7.70
2018-01-03T10:05:55.010Z,7.70
2018-01-03T10:08:21.240Z,7.80
2018-01-03T10:10:47.526Z,7.80
2018-01-03T10:13:14.135Z,7.90
2018-01-03T10:15:40.724Z,7.90
2018-01-03T10:18:06.998Z,7.90
2018-01-03T10:20:33.609Z,7.80
2018-01-03T10:22:59.835Z,7.80
2018-01-03T10:25:26.118Z,7.70
2018-01-03T10:27:52.339Z,7.60
2018-01-03T10:30:18.603Z,7.70
2018-01-03T10:32:44.859Z,7.80
2018-01-03T10:35:11.084Z,7.60
2018-01-03T10:37:37.337Z,7.60
2018-01-03T10:40:03.582Z,7.40
2018-01-03T10:42:29.824Z,7.40
2018-01-03T10:44:56.106Z,7.40
2018-01-03T10:47:22.455Z,7.30
2018-01-03T10:49:48.679Z,7.10
2018-01-03T10:52:14.929Z,7.00
2018-01-03T10:54:41.224Z,6.90
2018-01-03T10:57:07.481Z,6.80
2018-01-03T10:59:34.134Z,6.80
2018-01-03T11:02:00.386Z,6.80
2018-01-03T11:04:26.610Z,6.90
2018-01-03T11:06:52.855Z,6.90
2018-01-03T11:09:19.114Z,7.00
2018-01-03T11:11:45.402Z,6.90
2018-01-03T11:14:11.871Z,6.90
2018-01-03T11:16:38.089Z,6.80
2018-01-03T11:19:04.321Z,6.70
2018-01-03T11:21:30.538Z,6.80
2018-01-03T11:23:57.391Z,6.50
2018-01-03T11:26:23.611Z,6.20
2018-01-03T11:28:49.849Z,6.20
2018-01-03T11:31:16.135Z,6.10
2018-01-03T11:33:42.366Z,6.10
2018-01-03T11:36:08.650Z,6.30
2018-01-03T11:38:34.911Z,6.50
2018-01-03T11:41:01.189Z,6.60
2018-01-03T11:43:28.264Z,6.50
2018-01-03T11:45:54.499Z,6.40
2018-01-03T11:48:21.070Z,6.00
2018-01-03T11:50:47.301Z,6.00
2018-01-03T11:53:13.534Z,5.90
2018-01-03T11:55:39.780Z,6.00
2018-01-03T11:58:06.026Z,6.10
2018-01-03T12:00:33.468Z,6.00
2018-01-03T12:02:59.710Z,6.00
2018-01-03T12:05:25.973Z,6.00
2018-01-03T12:07:52.212Z,5.90
2018-01-03T12:10:18.479Z,5.90
2018-01-03T12:12:44.707Z,6.00
2018-01-03T12:15:11.784Z,6.00
2018-01-03T12:17:38.023Z,6.10
2018-01-03T12:20:04.279Z,6.20
2018-01-03T12:22:30.575Z,6.20
2018-01-03T12:24:57.160Z,6.30
2018-01-03T12:27:23.406Z,6.30
2018-01-03T12:29:49.681Z,6.10
2018-01-03T12:32:15.943Z,6.30
2018-01-03T12:34:42.262Z,6.30
2018-01-03T12:37:08.509Z,6.60
2018-01-03T12:39:34.762Z,6.50
2018-01-03T12:42:00.995Z,6.40
2018-01-03T12:44:28.257Z,6.60
2018-01-03T12:46:54.888Z,6.50
2018-01-03T12:49:21.562Z,6.50
2018-01-03T12:51:47.844Z,6.50
2018-01-03T12:54:14.074Z,6.70
2018-01-03T12:56:40.315Z,7.30
2018-01-03T12:59:06.927Z,7.70
2018-01-03T13:01:33.200Z,7.70
2018-01-03T13:03:59.479Z,7.40
2018-01-03T13:06:25.734Z,7.70
2018-01-03T13:08:52.349Z,8.10
2018-01-03T13:11:18.624Z,8.10
2018-01-03T13:13:44.891Z,8.00
2018-01-03T13:16:11.134Z,7.80
2018-01-03T13:18:38.073Z,7.70
2018-01-03T13:21:04.330Z,7.60
2018-01-03T13:23:30.954Z,7.60
2018-01-03T13:25:57.237Z,7.60
2018-01-03T13:28:23.852Z,7.90
2018-01-03T13:30:50.100Z,8.00
2018-01-03T13:33:16.379Z,7.80
2018-01-03T13:35:42.665Z,7.50
2018-01-03T13:38:08.916Z,7.10
2018-01-03T13:40:35.132Z,6.70
2018-01-03T13:43:01.412Z,6.50
2018-01-03T13:45:28.509Z,6.40
2018-01-03T13:47:54.796Z,6.30
2018-01-03T13:50:22.158Z,6.50
2018-01-03T13:52:48.428Z,6.50
2018-01-03T13:55:14.985Z,6.60
2018-01-03T13:57:41.269Z,6.90
2018-01-03T14:00:07.556Z,7.30
2018-01-03T14:02:33.835Z,7.50
2018-01-03T14:05:00.111Z,7.60
2018-01-03T14:07:26.976Z,7.30
2018-01-03T14:09:53.215Z,7.20
2018-01-03T14:12:19.480Z,7.40
2018-01-03T14:14:45.788Z,7.40
2018-01-03T14:17:12.059Z,7.30
2018-01-03T14:19:38.332Z,7.40
2018-01-03T14:22:04.577Z,7.70
2018-01-03T14:24:31.066Z,7.90
2018-01-03T14:26:57.681Z,8.30
2018-01-03T14:29:23.987Z,8.30
2018-01-03T14:31:50.264Z,8.30
2018-01-03T14:34:17.043Z,7.90
2018-01-03T14:36:43.488Z,7.90
2018-01-03T14:39:09.807Z,7.80
2018-01-03T14:41:36.103Z,7.80
2018-01-03T14:44:02.435Z,7.80
2018-01-03T14:46:29.086Z,7.40
2018-01-03T14:48:55.352Z,7.40
2018-01-03T14:51:21.583Z,7.40
2018-01-03T14:53:47.834Z,7.20
2018-01-03T14:56:14.062Z,7.10
2018-01-03T14:58:40.283Z,7.10
2018-01-03T15:01:06.509Z,7.00
2018-01-03T15:03:32.802Z,7.00
2018-01-03T15:05:59.076Z,7.00
2018-01-03T15:08:25.314Z,7.00
2018-01-03T15:10:51.606Z,6.90
2018-01-03T15:13:17.852Z,7.10
2018-01-03T15:15:44.096Z,7.10
2018-01-03T15:18:10.343Z,7.00
2018-01-03T15:20:37.771Z,7.00
2018-01-03T15:23:04.069Z,7.00
2018-01-03T15:25:30.266Z,6.80
2018-01-03T15:27:56.901Z,6.80
2018-01-03T15:30:23.106Z,6.80
2018-01-03T15:32:49.326Z,6.80
2018-01-03T15:35:15.597Z,6.70
2018-01-03T15:37:42.014Z,6.40
2018-01-03T15:40:08.281Z,6.40
2018-01-03T15:42:34.518Z,6.30
2018-01-03T15:45:00.779Z,6.40
2018-01-03T15:47:27.018Z,6.40
2018-01-03T15:49:53.673Z,6.40
2018-01-03T15:52:20.338Z,6.40
2018-01-03T15:54:46.586Z,6.40
2018-01-03T15:57:12.888Z,6.40
2018-01-03T15:59:39.158Z,6.30
2018-01-03T16:02:05.520Z,6.30
2018-01-03T16:04:31.818Z,6.20
2018-01-03T16:06:58.042Z,6.20
2018-01-03T16:09:24.299Z,6.20
2018-01-03T16:11:50.545Z,6.10
2018-01-03T16:14:17.153Z,6.00
2018-01-03T16:16:43.398Z,6.00
2018-01-03T16:19:10.083Z,6.00
2018-01-03T16:21:36.358Z,6.00
2018-01-03T16:24:02.603Z,6.00
2018-01-03T16:26:28.866Z,6.00
2018-01-03T16:28:55.092Z,6.10
2018-01-03T16:31:21.355Z,6.10
2018-01-03T16:33:47.601Z,6.10
2018-01-03T16:36:14.771Z,6.10
2018-01-03T16:38:41.020Z,6.10
2018-01-03T16:41:07.269Z,6.10
2018-01-03T16:43:33.481Z,6.10
2018-01-03T16:46:01.187Z,6.10
2018-01-03T16:48:27.398Z,6.00
2018-01-03T16:50:53.796Z,6.00
2018-01-03T16:53:20.033Z,6.00
2018-01-03T16:55:46.277Z,6.00
2018-01-03T16:58:13.520Z,6.10
2018-01-03T17:00:39.849Z,6.10
2018-01-03T17:03:06.138Z,6.10
2018-01-03T17:05:32.441Z,6.10
2018-01-03T17:07:58.737Z,6.20
2018-01-03T17:10:24.995Z,6.20
2018-01-03T17:12:51.228Z,6.20
2018-01-03T17:15:17.478Z,6.20
2018-01-03T17:17:43.757Z,6.20
2018-01-03T17:20:10.557Z,6.20
2018-01-03T17:22:36.840Z,6.20
2018-01-03T17:25:03.091Z,6.20
2018-01-03T17:27:29.750Z,6.30
2018-01-03T17:29:56.589Z,6.40
2018-01-03T17:32:23.266Z,6.40
2018-01-03T17:34:49.609Z,6.40
2018-01-03T17:37:15.869Z,6.40
2018-01-03T17:39:42.148Z,6.40
2018-01-03T17:42:08.440Z,6.50
2018-01-03T17:44:34.937Z,6.50
2018-01-03T17:47:01.234Z,6.50
2018-01-03T17:49:28.163Z,6.40
2018-01-03T17:51:54.835Z,6.30
2018-01-03T17:54:21.365Z,6.40
2018-01-03T17:56:47.632Z,6.40
2018-01-03T17:59:13.890Z,6.40
2018-01-03T18:01:40.156Z,6.50
2018-01-03T18:04:06.403Z,6.30
2018-01-03T18:06:32.707Z,6.30
2018-01-03T18:08:58.983Z,6.20
2018-01-03T18:11:25.248Z,6.20
2018-01-03T18:13:51.542Z,6.30
2018-01-03T18:16:19.145Z,6.10
2018-01-03T18:18:46.460Z,6.10
2018-01-03T18:21:13.170Z,6.30
2018-01-03T18:23:39.464Z,6.20
2018-01-03T18:26:05.709Z,6.30
2018-01-03T18:28:31.964Z,6.30
2018-01-03T18:30:58.253Z,6.30
2018-01-03T18:33:24.595Z,6.40
2018-01-03T18:35:50.901Z,6.40
2018-01-03T18:38:17.209Z,6.30
2018-01-03T18:40:43.906Z,6.30
2018-01-03T18:43:10.164Z,6.30
2018-01-03T18:45:36.512Z,6.10
2018-01-03T18:48:03.167Z,6.20
2018-01-03T18:50:29.455Z,6.20
2018-01-03T18:52:55.709Z,6.30
2018-01-03T18:55:22.425Z,6.30
2018-01-03T18:57:48.737Z,6.30
2018-01-03T19:00:15.006Z,6.30
2018-01-03T19:02:41.313Z,6.20
2018-01-03T19:05:07.650Z,6.20
2018-01-03T19:07:33.996Z,6.10
2018-01-03T19:10:00.635Z,6.30
2018-01-03T19:12:27.310Z,6.40
2018-01-03T19:14:53.586Z,6.40
2018-01-03T19:17:19.910Z,6.30
2018-01-03T19:19:46.283Z,6.40
2018-01-03T19:22:12.606Z,6.50
2018-01-03T19:24:38.999Z,6.50
2018-01-03T19:27:05.314Z,6.50
2018-01-03T19:29:31.613Z,6.50
2018-01-03T19:31:57.950Z,6.50
2018-01-03T19:34:24.248Z,6.40
2018-01-03T19:36:50.601Z,6.40
2018-01-03T19:39:16.939Z,6.40
2018-01-03T19:41:43.324Z,6.50
2018-01-03T19:44:09.623Z,6.60
2018-01-03T19:46:36.875Z,6.60
2018-01-03T19:49:03.151Z,6.50
2018-01-03T19:51:29.790Z,6.60
2018-01-03T19:53:56.158Z,6.60
2018-01-03T19:56:22.493Z,6.60
2018-01-03T19:58:48.916Z,6.40
2018-01-03T20:01:16.238Z,6.40
2018-01-03T20:03:42.563Z,6.40
2018-01-03T20:06:09.249Z,6.60
2018-01-03T20:08:35.889Z,6.60
2018-01-03T20:11:02.227Z,6.50
2018-01-03T20:13:28.531Z,6.40
2018-01-03T20:15:54.785Z,6.30
2018-01-03T20:18:21.165Z,6.20
2018-01-03T20:20:47.798Z,6.30
2018-01-03T20:23:14.134Z,6.30
2018-01-03T20:25:40.781Z,6.40
2018-01-03T20:28:07.111Z,6.40
2018-01-03T20:30:33.391Z,6.50
2018-01-03T20:33:00.519Z,6.40
2018-01-03T20:35:26.759Z,6.40
2018-01-03T20:37:53.044Z,6.40
2018-01-03T20:40:19.291Z,6.50
2018-01-03T20:42:45.554Z,6.50
2018-01-03T20:45:11.818Z,6.60
2018-01-03T20:47:38.475Z,6.70
2018-01-03T20:50:04.789Z,6.70
2018-01-03T20:52:31.393Z,6.80
2018-01-03T20:54:57.769Z,6.70
2018-01-03T20:57:24.452Z,6.10
2018-01-03T20:59:50.764Z,6.10
2018-01-03T21:02:17.814Z,5.90
2018-01-03T21:04:44.146Z,5.80
2018-01-03T21:07:10.488Z,5.80
2018-01-03T21:09:36.795Z,5.80
2018-01-03T21:12:04.800Z,5.90
2018-01-03T21:14:31.109Z,6.00
2018-01-03T21:16:57.566Z,5.90
2018-01-03T21:19:24.495Z,6.00
2018-01-03T21:21:51.274Z,6.00
2018-01-03T21:24:17.681Z,5.90
2018-01-03T21:26:43.983Z,6.10
2018-01-03T21:29:10.237Z,6.10
2018-01-03T21:31:36.487Z,5.90
2018-01-03T21:34:02.834Z,5.90
2018-01-03T21:36:29.163Z,5.90
2018-01-03T21:38:55.813Z,6.10
2018-01-03T21:41:22.097Z,6.10
2018-01-03T21:43:48.399Z,6.00
2018-01-03T21:46:14.666Z,5.90
2018-01-03T21:48:40.920Z,5.90
2018-01-03T21:51:07.598Z,6.00
2018-01-03T21:53:33.860Z,6.00
2018-01-03T21:56:00.173Z,6.10
2018-01-03T21:58:26.481Z,6.10
2018-01-03T22:00:52.789Z,6.10
2018-01-03T22:03:19.104Z,6.10
2018-01-03T22:05:46.434Z,6.40
2018-01-03T22:08:15.081Z,6.40
2018-01-03T22:10:41.665Z,6.30
2018-01-03T22:13:07.957Z,6.30
2018-01-03T22:15:35.240Z,6.30
2018-01-03T22:18:01.490Z,6.20
2018-01-03T22:20:28.172Z,6.00
2018-01-03T22:22:54.447Z,6.00
2018-01-03T22:25:20.739Z,5.90
2018-01-03T22:27:46.986Z,6.00
2018-01-03T22:30:13.248Z,6.00
2018-01-03T22:32:39.891Z,5.90
2018-01-03T22:35:06.174Z,5.90
2018-01-03T22:37:32.458Z,6.00
2018-01-03T22:39:58.731Z,6.10
2018-01-03T22:42:25.004Z,6.00
2018-01-03T22:44:51.597Z,6.20
2018-01-03T22:47:17.868Z,6.20
2018-01-03T22:49:45.074Z,6.10
2018-01-03T22:52:11.304Z,6.10
2018-01-03T22:54:37.639Z,6.10
2018-01-03T22:57:03.940Z,6.10
2018-01-03T22:59:30.177Z,6.00
2018-01-03T23:01:56.392Z,6.00
2018-01-03T23:04:22.645Z,5.80
2018-01-03T23:06:48.907Z,5.80
2018-01-03T23:09:15.152Z,5.70
2018-01-03T23:11:41.768Z,5.60
2018-01-03T23:14:08.022Z,5.60
2018-01-03T23:16:34.224Z,5.70
2018-01-03T23:19:01.414Z,5.70
2018-01-03T23:21:27.666Z,5.70
2018-01-03T23:23:53.904Z,5.70
2018-01-03T23:26:20.124Z,5.80
2018-01-03T23:28:46.376Z,5.80
2018-01-03T23:31:12.604Z,5.70
2018-01-03T23:33:38.867Z,5.80
2018-01-03T23:36:05.492Z,5.90
2018-01-03T23:38:31.775Z,5.90
2018-01-03T23:40:58.046Z,5.90
2018-01-03T23:43:24.293Z,6.00
2018-01-03T23:45:50.547Z,6.20
2018-01-03T23:48:16.786Z,6.10
2018-01-03T23:50:43.237Z,6.10
2018-01-03T23:53:09.556Z,5.90
2018-01-03T23:58:07.990Z,6.10
